sensor_id;sensor_type;location;lat;lon;timestamp;pressure;altitude;pressure_sealevel;temperature;humidity
60820;BME280;46641;48.904;9.126;2023-09-30T00:00:34;99408.97;;;23.69;46.55
60820;BME280;46641;48.904;9.126;2023-09-30T00:05:24;99415.13;;;23.63;46.70
60820;BME280;46641;48.904;9.126;2023-09-30T00:10:15;99412.66;;;23.61;46.59
60820;BME280;46641;48.904;9.126;2023-09-30T00:15:06;99407.31;;;23.61;46.60
60820;BME280;46641;48.904;9.126;2023-09-30T00:19:56;99405.69;;;23.60;46.32
60820;BME280;46641;48.904;9.126;2023-09-30T00:24:46;99400.53;;;23.59;46.62
60820;BME280;46641;48.904;9.126;2023-09-30T00:29:37;99395.81;;;23.54;46.65
60820;BME280;46641;48.904;9.126;2023-09-30T00:34:27;99399.53;;;23.53;46.45
60820;BME280;46641;48.904;9.126;2023-09-30T00:39:17;99410.66;;;23.50;46.69
60820;BME280;46641;48.904;9.126;2023-09-30T00:44:08;99411.06;;;23.47;46.67
60820;BME280;46641;48.904;9.126;2023-09-30T00:48:59;99416.00;;;23.43;46.95
60820;BME280;46641;48.904;9.126;2023-09-30T00:53:51;99411.25;;;23.39;46.90
60820;BME280;46641;48.904;9.126;2023-09-30T00:58:42;99413.13;;;23.38;47.01
60820;BME280;46641;48.904;9.126;2023-09-30T01:03:32;99408.19;;;23.35;46.95
60820;BME280;46641;48.904;9.126;2023-09-30T01:08:23;99411.50;;;23.30;46.89
60820;BME280;46641;48.904;9.126;2023-09-30T01:13:13;99411.91;;;23.27;46.80
60820;BME280;46641;48.904;9.126;2023-09-30T01:18:04;99410.66;;;23.23;47.03
60820;BME280;46641;48.904;9.126;2023-09-30T01:22:56;99404.72;;;23.21;47.17
60820;BME280;46641;48.904;9.126;2023-09-30T01:27:47;99411.28;;;23.19;47.13
60820;BME280;46641;48.904;9.126;2023-09-30T01:32:37;99414.38;;;23.16;47.43
60820;BME280;46641;48.904;9.126;2023-09-30T01:37:28;99426.28;;;23.13;47.24
60820;BME280;46641;48.904;9.126;2023-09-30T01:42:18;99429.38;;;23.10;46.94
60820;BME280;46641;48.904;9.126;2023-09-30T01:47:08;99433.31;;;23.07;47.55
60820;BME280;46641;48.904;9.126;2023-09-30T01:51:59;99430.81;;;23.06;47.27
60820;BME280;46641;48.904;9.126;2023-09-30T01:56:49;99419.50;;;23.04;47.31
60820;BME280;46641;48.904;9.126;2023-09-30T02:01:40;99426.28;;;23.00;47.23
60820;BME280;46641;48.904;9.126;2023-09-30T02:06:30;99417.06;;;22.96;47.41
60820;BME280;46641;48.904;9.126;2023-09-30T02:11:20;99418.09;;;22.95;47.49
60820;BME280;46641;48.904;9.126;2023-09-30T02:16:11;99433.69;;;22.91;47.28
60820;BME280;46641;48.904;9.126;2023-09-30T02:21:02;99433.88;;;22.90;47.14
60820;BME280;46641;48.904;9.126;2023-09-30T02:25:54;99435.31;;;22.85;47.46
60820;BME280;46641;48.904;9.126;2023-09-30T02:30:44;99438.97;;;22.84;47.68
60820;BME280;46641;48.904;9.126;2023-09-30T02:35:34;99445.56;;;22.82;47.61
60820;BME280;46641;48.904;9.126;2023-09-30T02:40:24;99438.78;;;22.79;47.38
60820;BME280;46641;48.904;9.126;2023-09-30T02:45:15;99440.22;;;22.75;47.84
60820;BME280;46641;48.904;9.126;2023-09-30T02:50:08;99438.56;;;22.74;47.88
60820;BME280;46641;48.904;9.126;2023-09-30T02:55:01;99435.28;;;22.72;47.36
60820;BME280;46641;48.904;9.126;2023-09-30T02:59:53;99434.03;;;22.68;47.79
60820;BME280;46641;48.904;9.126;2023-09-30T03:04:44;99448.81;;;22.64;47.80
60820;BME280;46641;48.904;9.126;2023-09-30T03:09:34;99447.19;;;22.63;47.63
60820;BME280;46641;48.904;9.126;2023-09-30T03:14:25;99453.75;;;22.60;47.50
60820;BME280;46641;48.904;9.126;2023-09-30T03:19:16;99459.06;;;22.60;47.87
60820;BME280;46641;48.904;9.126;2023-09-30T03:24:06;99463.19;;;22.56;47.57
60820;BME280;46641;48.904;9.126;2023-09-30T03:28:58;99462.75;;;22.53;47.62
60820;BME280;46641;48.904;9.126;2023-09-30T03:33:49;99463.97;;;22.50;47.94
60820;BME280;46641;48.904;9.126;2023-09-30T03:38:41;99455.97;;;22.50;47.82
60820;BME280;46641;48.904;9.126;2023-09-30T03:43:31;99432.16;;;22.49;47.62
60820;BME280;46641;48.904;9.126;2023-09-30T03:48:24;99433.81;;;22.50;47.79
60820;BME280;46641;48.904;9.126;2023-09-30T03:53:14;99422.72;;;22.46;47.90
60820;BME280;46641;48.904;9.126;2023-09-30T03:58:05;99436.66;;;22.42;47.67
60820;BME280;46641;48.904;9.126;2023-09-30T04:02:55;99451.66;;;22.43;47.88
60820;BME280;46641;48.904;9.126;2023-09-30T04:07:48;99451.84;;;22.41;48.05
60820;BME280;46641;48.904;9.126;2023-09-30T04:12:38;99446.72;;;22.39;48.00
60820;BME280;46641;48.904;9.126;2023-09-30T04:17:29;99451.44;;;22.37;48.05
60820;BME280;46641;48.904;9.126;2023-09-30T04:22:19;99440.97;;;22.36;48.04
60820;BME280;46641;48.904;9.126;2023-09-30T04:27:11;99447.53;;;22.33;47.99
60820;BME280;46641;48.904;9.126;2023-09-30T04:32:01;99463.53;;;22.33;47.96
60820;BME280;46641;48.904;9.126;2023-09-30T04:36:52;99461.25;;;22.30;48.05
60820;BME280;46641;48.904;9.126;2023-09-30T04:41:42;99470.47;;;22.28;48.20
60820;BME280;46641;48.904;9.126;2023-09-30T04:46:32;99475.81;;;22.28;47.87
60820;BME280;46641;48.904;9.126;2023-09-30T04:51:22;99480.50;;;22.26;47.93
60820;BME280;46641;48.904;9.126;2023-09-30T04:56:15;99487.50;;;22.27;48.05
60820;BME280;46641;48.904;9.126;2023-09-30T05:01:06;99491.38;;;22.24;48.26
60820;BME280;46641;48.904;9.126;2023-09-30T05:05:59;99502.06;;;22.24;47.94
60820;BME280;46641;48.904;9.126;2023-09-30T05:10:49;99502.44;;;22.21;48.05
60820;BME280;46641;48.904;9.126;2023-09-30T05:15:40;99509.63;;;22.21;48.16
60820;BME280;46641;48.904;9.126;2023-09-30T05:20:31;99499.97;;;22.20;48.06
60820;BME280;46641;48.904;9.126;2023-09-30T05:25:22;99489.50;;;22.18;47.93
60820;BME280;46641;48.904;9.126;2023-09-30T05:30:16;99488.88;;;22.16;48.11
60820;BME280;46641;48.904;9.126;2023-09-30T05:35:09;99486.78;;;22.11;48.30
60820;BME280;46641;48.904;9.126;2023-09-30T05:40:03;99479.44;;;22.13;48.27
60820;BME280;46641;48.904;9.126;2023-09-30T05:44:59;99491.31;;;22.11;48.10
60820;BME280;46641;48.904;9.126;2023-09-30T05:49:49;99499.91;;;22.13;48.02
60820;BME280;46641;48.904;9.126;2023-09-30T05:54:39;99517.31;;;22.09;48.29
60820;BME280;46641;48.904;9.126;2023-09-30T05:59:30;99494.38;;;22.08;48.18
60820;BME280;46641;48.904;9.126;2023-09-30T06:04:20;99505.41;;;22.05;48.43
60820;BME280;46641;48.904;9.126;2023-09-30T06:09:11;99526.94;;;22.03;48.43
60820;BME280;46641;48.904;9.126;2023-09-30T06:14:01;99545.81;;;22.02;48.47
60820;BME280;46641;48.904;9.126;2023-09-30T06:18:53;99556.03;;;21.98;48.48
60820;BME280;46641;48.904;9.126;2023-09-30T06:23:43;99547.22;;;21.98;48.33
60820;BME280;46641;48.904;9.126;2023-09-30T06:33:30;99548.22;;;21.97;48.24
60820;BME280;46641;48.904;9.126;2023-09-30T06:38:21;99549.25;;;21.96;48.41
60820;BME280;46641;48.904;9.126;2023-09-30T06:43:12;99556.22;;;21.97;48.43
60820;BME280;46641;48.904;9.126;2023-09-30T06:48:05;99560.94;;;21.94;48.35
60820;BME280;46641;48.904;9.126;2023-09-30T06:52:56;99563.78;;;21.93;48.39
60820;BME280;46641;48.904;9.126;2023-09-30T06:57:46;99567.28;;;21.93;48.56
60820;BME280;46641;48.904;9.126;2023-09-30T07:02:37;99570.13;;;21.92;48.44
60820;BME280;46641;48.904;9.126;2023-09-30T07:07:28;99565.44;;;21.94;48.25
60820;BME280;46641;48.904;9.126;2023-09-30T07:12:18;99559.28;;;21.93;48.33
60820;BME280;46641;48.904;9.126;2023-09-30T07:17:10;99570.78;;;21.94;48.35
60820;BME280;46641;48.904;9.126;2023-09-30T07:22:00;99581.06;;;21.97;48.24
60820;BME280;46641;48.904;9.126;2023-09-30T07:26:52;99586.38;;;21.97;48.38
60820;BME280;46641;48.904;9.126;2023-09-30T07:31:43;99598.69;;;21.98;48.41
60820;BME280;46641;48.904;9.126;2023-09-30T07:36:33;99588.84;;;21.99;48.22
60820;BME280;46641;48.904;9.126;2023-09-30T07:41:23;99587.44;;;22.03;48.08
60820;BME280;46641;48.904;9.126;2023-09-30T07:46:14;99601.41;;;22.05;48.27
60820;BME280;46641;48.904;9.126;2023-09-30T07:51:05;99614.72;;;22.05;48.14
60820;BME280;46641;48.904;9.126;2023-09-30T07:55:59;99631.13;;;22.02;48.37
60820;BME280;46641;48.904;9.126;2023-09-30T08:00:49;99621.47;;;22.01;48.35
60820;BME280;46641;48.904;9.126;2023-09-30T08:05:40;99606.91;;;22.03;48.43
60820;BME280;46641;48.904;9.126;2023-09-30T08:10:32;99588.50;;;22.08;48.51
60820;BME280;46641;48.904;9.126;2023-09-30T08:15:22;99595.72;;;22.14;48.00
60820;BME280;46641;48.904;9.126;2023-09-30T08:20:13;99601.50;;;22.18;48.11
60820;BME280;46641;48.904;9.126;2023-09-30T08:25:05;99601.50;;;22.18;47.95
60820;BME280;46641;48.904;9.126;2023-09-30T08:29:56;99603.91;;;22.13;48.30
60820;BME280;46641;48.904;9.126;2023-09-30T08:34:46;99608.41;;;22.12;48.38
60820;BME280;46641;48.904;9.126;2023-09-30T08:39:40;99584.88;;;22.16;48.50
60820;BME280;46641;48.904;9.126;2023-09-30T08:44:30;99583.50;;;22.20;48.29
60820;BME280;46641;48.904;9.126;2023-09-30T08:49:21;99595.63;;;22.29;48.42
60820;BME280;46641;48.904;9.126;2023-09-30T08:54:12;99598.13;;;22.37;48.13
60820;BME280;46641;48.904;9.126;2023-09-30T08:59:03;99588.97;;;22.47;48.11
60820;BME280;46641;48.904;9.126;2023-09-30T09:03:54;99582.84;;;22.53;47.89
60820;BME280;46641;48.904;9.126;2023-09-30T09:08:44;99594.31;;;22.53;48.06
60820;BME280;46641;48.904;9.126;2023-09-30T09:13:51;99605.19;;;22.52;48.42
60820;BME280;46641;48.904;9.126;2023-09-30T09:18:46;99610.13;;;22.55;48.30
60820;BME280;46641;48.904;9.126;2023-09-30T09:23:43;99599.47;;;22.61;48.35
60820;BME280;46641;48.904;9.126;2023-09-30T09:28:35;99604.84;;;22.68;48.39
60820;BME280;46641;48.904;9.126;2023-09-30T09:33:35;99601.41;;;22.81;48.74
60820;BME280;46641;48.904;9.126;2023-09-30T09:38:43;99590.34;;;22.91;48.37
60820;BME280;46641;48.904;9.126;2023-09-30T09:43:38;99590.63;;;23.02;48.40
60820;BME280;46641;48.904;9.126;2023-09-30T09:48:31;99586.53;;;23.06;48.92
60820;BME280;46641;48.904;9.126;2023-09-30T09:53:22;99594.56;;;23.13;48.67
60820;BME280;46641;48.904;9.126;2023-09-30T09:58:14;99587.38;;;23.20;49.43
60820;BME280;46641;48.904;9.126;2023-09-30T10:03:04;99582.06;;;23.33;49.02
60820;BME280;46641;48.904;9.126;2023-09-30T10:07:59;99580.41;;;23.46;49.55
60820;BME280;46641;48.904;9.126;2023-09-30T10:12:50;99571.81;;;23.57;49.01
60820;BME280;46641;48.904;9.126;2023-09-30T10:33:24;99566.44;;;24.03;49.26
60820;BME280;46641;48.904;9.126;2023-09-30T10:43:44;99539.19;;;24.26;48.60
60820;BME280;46641;48.904;9.126;2023-09-30T10:48:35;99543.53;;;24.41;48.68
60820;BME280;46641;48.904;9.126;2023-09-30T10:53:25;99534.63;;;24.47;49.19
60820;BME280;46641;48.904;9.126;2023-09-30T10:58:17;99532.91;;;24.59;49.11
60820;BME280;46641;48.904;9.126;2023-09-30T11:03:11;99527.94;;;24.69;49.24
60820;BME280;46641;48.904;9.126;2023-09-30T11:08:02;99534.47;;;24.80;48.82
60820;BME280;46641;48.904;9.126;2023-09-30T11:12:55;99511.75;;;24.89;49.21
60820;BME280;46641;48.904;9.126;2023-09-30T11:17:45;99504.88;;;25.00;48.52
60820;BME280;46641;48.904;9.126;2023-09-30T11:22:36;99507.72;;;25.05;47.68
60820;BME280;46641;48.904;9.126;2023-09-30T11:27:26;99504.69;;;24.95;48.78
60820;BME280;46641;48.904;9.126;2023-09-30T11:32:24;99514.44;;;24.89;49.05
60820;BME280;46641;48.904;9.126;2023-09-30T11:37:16;99517.06;;;24.96;49.79
60820;BME280;46641;48.904;9.126;2023-09-30T11:42:17;99514.13;;;25.04;49.36
60820;BME280;46641;48.904;9.126;2023-09-30T11:47:07;99509.50;;;25.18;49.65
60820;BME280;46641;48.904;9.126;2023-09-30T11:52:02;99496.06;;;25.25;49.79
60820;BME280;46641;48.904;9.126;2023-09-30T11:56:53;99500.78;;;25.29;49.73
60820;BME280;46641;48.904;9.126;2023-09-30T12:01:43;99511.44;;;25.36;49.32
60820;BME280;46641;48.904;9.126;2023-09-30T12:06:34;99519.19;;;25.44;48.99
60820;BME280;46641;48.904;9.126;2023-09-30T12:11:24;99508.66;;;25.49;49.10
60820;BME280;46641;48.904;9.126;2023-09-30T12:16:16;99505.91;;;25.56;49.15
60820;BME280;46641;48.904;9.126;2023-09-30T12:21:10;99502.72;;;25.65;49.13
60820;BME280;46641;48.904;9.126;2023-09-30T12:26:01;99501.41;;;25.75;48.31
60820;BME280;46641;48.904;9.126;2023-09-30T12:30:55;99493.94;;;25.77;48.72
60820;BME280;46641;48.904;9.126;2023-09-30T12:35:45;99502.78;;;25.84;49.09
60820;BME280;46641;48.904;9.126;2023-09-30T12:40:35;99496.97;;;25.87;48.17
60820;BME280;46641;48.904;9.126;2023-09-30T12:45:25;99502.09;;;25.88;47.95
60820;BME280;46641;48.904;9.126;2023-09-30T12:50:15;99496.06;;;25.93;47.96
60820;BME280;46641;48.904;9.126;2023-09-30T12:55:06;99506.34;;;25.96;47.79
60820;BME280;46641;48.904;9.126;2023-09-30T12:59:56;99497.72;;;25.94;47.29
60820;BME280;46641;48.904;9.126;2023-09-30T13:04:47;99499.97;;;25.97;47.63
60820;BME280;46641;48.904;9.126;2023-09-30T13:09:39;99484.44;;;25.99;47.46
60820;BME280;46641;48.904;9.126;2023-09-30T13:14:29;99468.34;;;25.99;47.30
60820;BME280;46641;48.904;9.126;2023-09-30T13:19:19;99453.44;;;26.03;47.42
60820;BME280;46641;48.904;9.126;2023-09-30T13:24:13;99453.00;;;26.06;47.25
60820;BME280;46641;48.904;9.126;2023-09-30T13:29:04;99449.03;;;26.09;46.72
60820;BME280;46641;48.904;9.126;2023-09-30T13:33:55;99459.56;;;26.10;46.50
60820;BME280;46641;48.904;9.126;2023-09-30T13:38:45;99463.25;;;26.09;46.82
60820;BME280;46641;48.904;9.126;2023-09-30T13:43:36;99466.53;;;26.11;46.37
60820;BME280;46641;48.904;9.126;2023-09-30T13:48:26;99460.56;;;26.09;46.29
60820;BME280;46641;48.904;9.126;2023-09-30T13:53:16;99461.63;;;26.08;46.29
60820;BME280;46641;48.904;9.126;2023-09-30T13:58:07;99459.19;;;26.07;46.38
60820;BME280;46641;48.904;9.126;2023-09-30T14:02:59;99453.38;;;26.10;46.36
60820;BME280;46641;48.904;9.126;2023-09-30T14:07:50;99445.09;;;26.11;46.21
60820;BME280;46641;48.904;9.126;2023-09-30T14:12:41;99448.81;;;26.10;46.27
60820;BME280;46641;48.904;9.126;2023-09-30T14:17:32;99445.91;;;26.12;46.25
60820;BME280;46641;48.904;9.126;2023-09-30T14:22:22;99441.34;;;26.13;46.10
60820;BME280;46641;48.904;9.126;2023-09-30T14:27:13;99440.53;;;26.12;46.02
60820;BME280;46641;48.904;9.126;2023-09-30T14:32:05;99438.66;;;26.13;45.88
60820;BME280;46641;48.904;9.126;2023-09-30T14:36:57;99439.72;;;26.11;46.06
60820;BME280;46641;48.904;9.126;2023-09-30T14:41:47;99434.34;;;26.11;46.08
60820;BME280;46641;48.904;9.126;2023-09-30T14:46:38;99431.91;;;26.10;46.06
60820;BME280;46641;48.904;9.126;2023-09-30T14:51:28;99434.34;;;26.11;45.84
60820;BME280;46641;48.904;9.126;2023-09-30T14:56:18;99434.72;;;26.15;45.83
60820;BME280;46641;48.904;9.126;2023-09-30T15:01:09;99441.34;;;26.13;45.86
60820;BME280;46641;48.904;9.126;2023-09-30T15:06:00;99440.53;;;26.12;45.87
60820;BME280;46641;48.904;9.126;2023-09-30T15:10:51;99443.44;;;26.10;45.51
60820;BME280;46641;48.904;9.126;2023-09-30T15:15:42;99441.22;;;26.07;45.65
60820;BME280;46641;48.904;9.126;2023-09-30T15:20:38;99437.47;;;26.08;45.53
60820;BME280;46641;48.904;9.126;2023-09-30T15:25:29;99427.56;;;26.09;45.59
60820;BME280;46641;48.904;9.126;2023-09-30T15:30:19;99425.13;;;26.07;45.68
60820;BME280;46641;48.904;9.126;2023-09-30T15:35:09;99430.47;;;26.07;45.57
60820;BME280;46641;48.904;9.126;2023-09-30T15:39:59;99433.16;;;26.07;45.35
60820;BME280;46641;48.904;9.126;2023-09-30T15:44:50;99429.88;;;26.05;44.99
60820;BME280;46641;48.904;9.126;2023-09-30T15:49:46;99435.69;;;26.02;45.37
60820;BME280;46641;48.904;9.126;2023-09-30T15:54:36;99434.50;;;25.98;45.34
60820;BME280;46641;48.904;9.126;2023-09-30T15:59:26;99438.69;;;25.94;45.46
60820;BME280;46641;48.904;9.126;2023-09-30T16:04:16;99438.69;;;25.94;45.61
60820;BME280;46641;48.904;9.126;2023-09-30T16:09:07;99438.09;;;25.92;45.48
60820;BME280;46641;48.904;9.126;2023-09-30T16:13:57;99443.91;;;25.89;45.65
60820;BME280;46641;48.904;9.126;2023-09-30T16:18:47;99432.59;;;25.87;45.42
60820;BME280;46641;48.904;9.126;2023-09-30T16:23:38;99440.50;;;25.82;45.58
60820;BME280;46641;48.904;9.126;2023-09-30T16:28:28;99437.16;;;25.80;45.86
60820;BME280;46641;48.904;9.126;2023-09-30T16:33:18;99440.28;;;25.77;45.68
60820;BME280;46641;48.904;9.126;2023-09-30T16:38:14;99450.44;;;25.75;45.34
60820;BME280;46641;48.904;9.126;2023-09-30T16:43:04;99448.19;;;25.72;45.27
60820;BME280;46641;48.904;9.126;2023-09-30T16:47:55;99451.34;;;25.69;45.33
60820;BME280;46641;48.904;9.126;2023-09-30T16:52:45;99450.97;;;25.65;45.42
60820;BME280;46641;48.904;9.126;2023-09-30T16:57:35;99451.22;;;25.57;45.39
60820;BME280;46641;48.904;9.126;2023-09-30T17:02:26;99452.50;;;25.54;45.50
60820;BME280;46641;48.904;9.126;2023-09-30T17:07:16;99458.31;;;25.51;45.47
60820;BME280;46641;48.904;9.126;2023-09-30T17:12:07;99462.47;;;25.47;45.60
60820;BME280;46641;48.904;9.126;2023-09-30T17:16:57;99460.22;;;25.44;45.19
60820;BME280;46641;48.904;9.126;2023-09-30T17:21:47;99457.97;;;25.41;45.36
60820;BME280;46641;48.904;9.126;2023-09-30T17:26:37;99463.78;;;25.38;45.35
60820;BME280;46641;48.904;9.126;2023-09-30T17:31:28;99469.81;;;25.33;45.42
60820;BME280;46641;48.904;9.126;2023-09-30T17:36:18;99469.44;;;25.30;45.59
60820;BME280;46641;48.904;9.126;2023-09-30T17:41:08;99466.38;;;25.26;45.31
60820;BME280;46641;48.904;9.126;2023-09-30T17:46:10;99462.72;;;25.21;45.63
60820;BME280;46641;48.904;9.126;2023-09-30T17:51:00;99446.25;;;25.17;45.51
60820;BME280;46641;48.904;9.126;2023-09-30T17:55:51;99445.06;;;25.13;45.57
60820;BME280;46641;48.904;9.126;2023-09-30T18:00:41;99443.00;;;25.08;45.47
60820;BME280;46641;48.904;9.126;2023-09-30T18:05:31;99459.50;;;25.05;45.45
60820;BME280;46641;48.904;9.126;2023-09-30T18:10:21;99457.25;;;25.02;45.84
60820;BME280;46641;48.904;9.126;2023-09-30T18:15:12;99465.94;;;24.98;45.77
60820;BME280;46641;48.904;9.126;2023-09-30T18:20:02;99462.91;;;24.94;45.70
60820;BME280;46641;48.904;9.126;2023-09-30T18:24:53;99472.41;;;24.90;45.48
60820;BME280;46641;48.904;9.126;2023-09-30T18:29:43;99485.41;;;24.86;45.52
60820;BME280;46641;48.904;9.126;2023-09-30T18:34:34;99494.06;;;24.82;45.75
60820;BME280;46641;48.904;9.126;2023-09-30T18:39:24;99488.13;;;24.80;45.56
60820;BME280;46641;48.904;9.126;2023-09-30T18:44:14;99482.97;;;24.78;45.90
60820;BME280;46641;48.904;9.126;2023-09-30T18:49:05;99491.66;;;24.74;45.64
60820;BME280;46641;48.904;9.126;2023-09-30T18:53:57;99487.19;;;24.67;45.95
60820;BME280;46641;48.904;9.126;2023-09-30T18:58:47;99490.47;;;24.63;45.91
60820;BME280;46641;48.904;9.126;2023-09-30T19:03:38;99494.25;;;24.55;46.06
60820;BME280;46641;48.904;9.126;2023-09-30T19:08:28;99493.47;;;24.48;46.13
60820;BME280;46641;48.904;9.126;2023-09-30T19:13:19;99492.25;;;24.44;46.00
60820;BME280;46641;48.904;9.126;2023-09-30T19:18:09;99499.22;;;24.38;46.23
60820;BME280;46641;48.904;9.126;2023-09-30T19:23:00;99494.72;;;24.32;46.46
60820;BME280;46641;48.904;9.126;2023-09-30T19:27:50;99491.66;;;24.29;46.51
60820;BME280;46641;48.904;9.126;2023-09-30T19:32:41;99502.16;;;24.23;46.03
60820;BME280;46641;48.904;9.126;2023-09-30T19:37:31;99500.34;;;24.17;46.49
60820;BME280;46641;48.904;9.126;2023-09-30T19:42:21;99506.31;;;24.13;46.63
60820;BME280;46641;48.904;9.126;2023-09-30T19:47:12;99509.66;;;24.08;46.56
60820;BME280;46641;48.904;9.126;2023-09-30T19:52:03;99508.81;;;24.01;46.60
60820;BME280;46641;48.904;9.126;2023-09-30T19:56:53;99515.63;;;23.97;46.49
60820;BME280;46641;48.904;9.126;2023-09-30T20:01:43;99522.63;;;23.91;46.90
60820;BME280;46641;48.904;9.126;2023-09-30T20:06:34;99518.34;;;23.84;47.07
60820;BME280;46641;48.904;9.126;2023-09-30T20:11:25;99516.72;;;23.76;46.87
60820;BME280;46641;48.904;9.126;2023-09-30T20:16:17;99510.72;;;23.67;46.96
60820;BME280;46641;48.904;9.126;2023-09-30T20:21:07;99514.03;;;23.63;46.87
60820;BME280;46641;48.904;9.126;2023-09-30T20:25:58;99528.63;;;23.60;46.71
60820;BME280;46641;48.904;9.126;2023-09-30T20:30:48;99526.56;;;23.55;47.04
60820;BME280;46641;48.904;9.126;2023-09-30T20:35:39;99515.69;;;23.50;47.18
60820;BME280;46641;48.904;9.126;2023-09-30T20:40:29;99510.94;;;23.46;47.23
60820;BME280;46641;48.904;9.126;2023-09-30T20:45:19;99506.22;;;23.41;47.05
60820;BME280;46641;48.904;9.126;2023-09-30T20:50:10;99500.47;;;23.38;47.30
60820;BME280;46641;48.904;9.126;2023-09-30T20:55:00;99501.91;;;23.33;46.87
60820;BME280;46641;48.904;9.126;2023-09-30T20:59:50;99486.31;;;23.30;47.49
60820;BME280;46641;48.904;9.126;2023-09-30T21:04:40;99494.91;;;23.26;47.60
60820;BME280;46641;48.904;9.126;2023-09-30T21:09:32;99506.41;;;23.20;47.16
60820;BME280;46641;48.904;9.126;2023-09-30T21:14:22;99508.50;;;23.18;47.16
60820;BME280;46641;48.904;9.126;2023-09-30T21:19:13;99519.78;;;23.13;47.48
60820;BME280;46641;48.904;9.126;2023-09-30T21:24:03;99526.56;;;23.09;47.40
60820;BME280;46641;48.904;9.126;2023-09-30T21:28:55;99526.72;;;23.01;47.51
60820;BME280;46641;48.904;9.126;2023-09-30T21:33:46;99520.97;;;22.97;47.52
60820;BME280;46641;48.904;9.126;2023-09-30T21:38:38;99520.75;;;22.92;47.71
60820;BME280;46641;48.904;9.126;2023-09-30T21:43:28;99518.25;;;22.91;47.62
60820;BME280;46641;48.904;9.126;2023-09-30T21:48:18;99522.59;;;22.85;47.79
60820;BME280;46641;48.904;9.126;2023-09-30T21:53:09;99531.81;;;22.82;47.83
60820;BME280;46641;48.904;9.126;2023-09-30T21:57:59;99535.69;;;22.80;47.87
60820;BME280;46641;48.904;9.126;2023-09-30T22:02:49;99548.81;;;22.75;47.59
60820;BME280;46641;48.904;9.126;2023-09-30T22:07:40;99555.19;;;22.74;47.58
60820;BME280;46641;48.904;9.126;2023-09-30T22:12:30;99553.72;;;22.71;47.79
60820;BME280;46641;48.904;9.126;2023-09-30T22:17:20;99557.19;;;22.65;47.59
60820;BME280;46641;48.904;9.126;2023-09-30T22:22:10;99558.63;;;22.61;47.70
60820;BME280;46641;48.904;9.126;2023-09-30T22:27:01;99562.91;;;22.55;47.86
60820;BME280;46641;48.904;9.126;2023-09-30T22:31:52;99555.13;;;22.54;47.96
60820;BME280;46641;48.904;9.126;2023-09-30T22:36:42;99560.84;;;22.51;47.84
60820;BME280;46641;48.904;9.126;2023-09-30T22:41:32;99562.06;;;22.48;47.70
60820;BME280;46641;48.904;9.126;2023-09-30T22:46:23;99552.00;;;22.44;47.88
60820;BME280;46641;48.904;9.126;2023-09-30T22:51:13;99555.47;;;22.37;47.96
60820;BME280;46641;48.904;9.126;2023-09-30T22:56:03;99566.94;;;22.38;48.09
60820;BME280;46641;48.904;9.126;2023-09-30T23:00:57;99563.03;;;22.34;48.00
60820;BME280;46641;48.904;9.126;2023-09-30T23:05:47;99565.28;;;22.30;47.94
60820;BME280;46641;48.904;9.126;2023-09-30T23:10:38;99572.66;;;22.28;47.90
60820;BME280;46641;48.904;9.126;2023-09-30T23:15:29;99564.44;;;22.23;48.04
60820;BME280;46641;48.904;9.126;2023-09-30T23:20:20;99561.50;;;22.18;48.12
60820;BME280;46641;48.904;9.126;2023-09-30T23:25:12;99566.22;;;22.16;48.04
60820;BME280;46641;48.904;9.126;2023-09-30T23:30:08;99558.38;;;22.14;48.21
60820;BME280;46641;48.904;9.126;2023-09-30T23:35:05;99556.31;;;22.10;48.13
60820;BME280;46641;48.904;9.126;2023-09-30T23:39:58;99548.72;;;22.07;48.40
60820;BME280;46641;48.904;9.126;2023-09-30T23:44:49;99559.94;;;22.02;48.23
60820;BME280;46641;48.904;9.126;2023-09-30T23:54:30;99562.00;;;22.00;47.84
60820;BME280;46641;48.904;9.126;2023-09-30T23:59:21;99560.72;;;21.96;48.16
